createdAt,value
2019-02-08T00:00:10.860Z,1005.97
2019-02-08T00:00:37.013Z,1005.97
2019-02-08T00:01:03.151Z,1006.02
2019-02-08T00:01:29.609Z,1006.04
2019-02-08T00:01:55.739Z,1006.16
2019-02-08T00:02:21.951Z,1006.07
2019-02-08T00:02:48.481Z,1006.07
2019-02-08T00:03:14.645Z,1006.06
2019-02-08T00:03:40.785Z,1006.06
2019-02-08T00:04:06.915Z,1006.09
2019-02-08T00:04:33.114Z,1006.08
2019-02-08T00:04:59.438Z,1006.1
2019-02-08T00:05:25.635Z,1006.21
2019-02-08T00:05:51.774Z,1006.04
2019-02-08T00:06:17.919Z,1006.07
2019-02-08T00:06:44.086Z,1006.16
2019-02-08T00:07:10.240Z,1006.05
2019-02-08T00:07:36.415Z,1006.09
2019-02-08T00:08:02.583Z,1006.06
2019-02-08T00:08:29.035Z,1006.07
2019-02-08T00:08:55.222Z,1006.05
2019-02-08T00:09:21.764Z,1006.01
2019-02-08T00:09:48.174Z,1006.08
2019-02-08T00:10:14.330Z,1006.05
2019-02-08T00:10:40.711Z,1006.14
2019-02-08T00:11:06.836Z,1005.99
2019-02-08T00:11:32.973Z,1006.02
2019-02-08T00:11:59.433Z,1006.09
2019-02-08T00:12:25.586Z,1006.07
2019-02-08T00:12:51.985Z,1005.94
2019-02-08T00:13:18.121Z,1006.01
2019-02-08T00:13:44.225Z,1006.01
2019-02-08T00:14:10.683Z,1006.07
2019-02-08T00:14:36.895Z,1006.08
2019-02-08T00:15:03.033Z,1006
2019-02-08T00:15:29.217Z,1005.95
2019-02-08T00:15:55.323Z,1005.92
2019-02-08T00:16:21.570Z,1006.04
2019-02-08T00:16:47.699Z,1006.02
2019-02-08T00:17:13.894Z,1005.97
2019-02-08T00:17:40.075Z,1005.96
2019-02-08T00:18:06.201Z,1005.97
2019-02-08T00:18:32.336Z,1005.99
2019-02-08T00:18:58.734Z,1005.99
2019-02-08T00:19:24.874Z,1005.98
2019-02-08T00:19:51.106Z,1005.98
2019-02-08T00:20:17.261Z,1006.04
2019-02-08T00:20:43.395Z,1005.99
2019-02-08T00:21:09.613Z,1006
2019-02-08T00:21:35.752Z,1005.99
2019-02-08T00:22:01.915Z,1006.01
2019-02-08T00:22:28.276Z,1005.98
2019-02-08T00:22:54.468Z,1005.99
2019-02-08T00:23:26.457Z,1005.95
2019-02-08T00:23:47.855Z,1005.95
2019-02-08T00:24:13.955Z,1006.01
2019-02-08T00:24:40.342Z,1005.98
2019-02-08T00:25:06.554Z,1006.03
2019-02-08T00:25:33.019Z,1006.06
2019-02-08T00:25:59.214Z,1006.02
2019-02-08T00:26:25.380Z,1006.04
2019-02-08T00:26:51.814Z,1006
2019-02-08T00:27:17.964Z,1005.99
2019-02-08T00:27:44.066Z,1006
2019-02-08T00:28:10.398Z,1006.06
2019-02-08T00:28:36.531Z,1006.04
2019-02-08T00:29:02.891Z,1005.99
2019-02-08T00:29:29.004Z,1006.08
2019-02-08T00:29:55.200Z,1005.99
2019-02-08T00:30:21.690Z,1005.97
2019-02-08T00:30:47.910Z,1005.94
2019-02-08T00:31:14.100Z,1005.91
2019-02-08T00:31:40.314Z,1005.94
2019-02-08T00:32:06.554Z,1006.02
2019-02-08T00:32:32.710Z,1006.09
2019-02-08T00:32:58.873Z,1006.03
2019-02-08T00:33:24.979Z,1006.01
2019-02-08T00:33:51.144Z,1005.99
2019-02-08T00:34:17.281Z,1006
2019-02-08T00:34:43.388Z,1006
2019-02-08T00:35:09.811Z,1006.08
2019-02-08T00:35:35.918Z,1006
2019-02-08T00:36:02.237Z,1005.97
2019-02-08T00:36:28.346Z,1006.03
2019-02-08T00:36:54.477Z,1006.02
2019-02-08T00:37:21.073Z,1006.02
2019-02-08T00:37:47.203Z,1005.98
2019-02-08T00:38:13.618Z,1005.93
2019-02-08T00:38:39.836Z,1005.95
2019-02-08T00:39:05.975Z,1005.99
2019-02-08T00:39:32.298Z,1005.95
2019-02-08T00:39:58.432Z,1005.95
2019-02-08T00:40:24.540Z,1006.01
2019-02-08T00:40:50.867Z,1005.96
2019-02-08T00:41:16.994Z,1005.97
2019-02-08T00:41:43.149Z,1005.97
2019-02-08T00:42:09.251Z,1005.97
2019-02-08T00:42:35.351Z,1005.95
2019-02-08T00:43:01.788Z,1005.96
2019-02-08T00:43:27.885Z,1005.93
2019-02-08T00:43:53.991Z,1005.97
2019-02-08T00:44:20.364Z,1005.98
2019-02-08T00:44:46.481Z,1005.92
2019-02-08T00:45:13.029Z,1005.97
2019-02-08T00:45:39.137Z,1005.99
2019-02-08T00:46:05.240Z,1005.92
2019-02-08T00:46:31.548Z,1005.92
2019-02-08T00:46:57.698Z,1006
2019-02-08T00:47:23.791Z,1005.95
2019-02-08T00:47:50.150Z,1005.99
2019-02-08T00:48:16.259Z,1005.94
2019-02-08T00:48:42.579Z,1005.95
2019-02-08T00:49:08.681Z,1005.98
2019-02-08T00:49:34.785Z,1006.06
2019-02-08T00:50:01.256Z,1005.96
2019-02-08T00:50:27.357Z,1006.02
2019-02-08T00:50:53.462Z,1005.99
2019-02-08T00:51:19.781Z,1005.96
2019-02-08T00:51:45.886Z,1006
2019-02-08T00:52:12.279Z,1005.97
2019-02-08T00:52:38.382Z,1005.95
2019-02-08T00:53:04.491Z,1005.99
2019-02-08T00:53:33.470Z,1006
2019-02-08T00:53:57.981Z,1006.06
2019-02-08T00:54:24.352Z,1006.03
2019-02-08T00:54:50.525Z,1005.99
2019-02-08T00:55:16.657Z,1006.01
2019-02-08T00:55:43.258Z,1006.05
2019-02-08T00:56:09.365Z,1006.08
2019-02-08T00:56:35.472Z,1006.06
2019-02-08T00:57:01.842Z,1006.02
2019-02-08T00:57:27.963Z,1006.09
2019-02-08T00:57:54.332Z,1006.1
2019-02-08T00:58:20.486Z,1006.05
2019-02-08T00:58:46.595Z,1006
2019-02-08T00:59:12.996Z,1006.05
2019-02-08T00:59:39.099Z,1006.02
2019-02-08T01:00:05.253Z,1006.04
2019-02-08T01:00:31.667Z,1006.09
2019-02-08T01:00:58.001Z,1006.08
2019-02-08T01:01:24.457Z,1006.1
2019-02-08T01:01:50.591Z,1006.07
2019-02-08T01:02:16.730Z,1006.08
2019-02-08T01:02:43.366Z,1006.11
2019-02-08T01:03:09.503Z,1006.12
2019-02-08T01:03:35.606Z,1006.09
2019-02-08T01:04:01.967Z,1006.08
2019-02-08T01:04:28.101Z,1006.14
2019-02-08T01:04:54.464Z,1006.06
2019-02-08T01:05:20.564Z,1006.21
2019-02-08T01:05:46.664Z,1006.13
2019-02-08T01:06:12.973Z,1006.09
2019-02-08T01:06:39.080Z,1006.13
2019-02-08T01:07:05.506Z,1006.07
2019-02-08T01:07:31.814Z,1006.12
2019-02-08T01:07:57.919Z,1006.11
2019-02-08T01:08:24.301Z,1006.12
2019-02-08T01:08:50.412Z,1006.16
2019-02-08T01:09:16.555Z,1006.15
2019-02-08T01:09:42.883Z,1006.13
2019-02-08T01:10:08.979Z,1006.08
2019-02-08T01:10:35.385Z,1006.09
2019-02-08T01:11:01.514Z,1006.14
2019-02-08T01:11:27.620Z,1006.14
2019-02-08T01:11:53.931Z,1006.09
2019-02-08T01:12:20.033Z,1006.08
2019-02-08T01:12:46.136Z,1006.13
2019-02-08T01:13:12.565Z,1006.08
2019-02-08T01:13:38.967Z,1006.11
2019-02-08T01:14:05.222Z,1006.14
2019-02-08T01:14:31.351Z,1006.09
2019-02-08T01:14:57.454Z,1006.06
2019-02-08T01:15:23.752Z,1006.06
2019-02-08T01:15:49.854Z,1006.04
2019-02-08T01:16:15.991Z,1006.04
2019-02-08T01:16:42.325Z,1006.07
2019-02-08T01:17:08.437Z,1006.08
2019-02-08T01:17:34.733Z,1006.1
2019-02-08T01:18:00.843Z,1006.05
2019-02-08T01:18:26.945Z,1006.07
2019-02-08T01:18:53.270Z,1006.08
2019-02-08T01:19:19.372Z,1006.11
2019-02-08T01:19:45.479Z,1006.08
2019-02-08T01:20:11.870Z,1006.05
2019-02-08T01:20:37.992Z,1006.07
2019-02-08T01:21:04.321Z,1006.01
2019-02-08T01:21:30.422Z,1006.07
2019-02-08T01:21:56.537Z,1006.01
2019-02-08T01:22:22.810Z,1006.14
2019-02-08T01:22:48.921Z,1006.1
2019-02-08T01:23:15.083Z,1006.08
2019-02-08T01:23:45.230Z,1006.05
2019-02-08T01:24:11.342Z,1006.16
2019-02-08T01:24:37.465Z,1006.03
2019-02-08T01:25:03.569Z,1006.08
2019-02-08T01:25:29.701Z,1006.03
2019-02-08T01:25:55.840Z,1006.1
2019-02-08T01:26:21.943Z,1006.05
2019-02-08T01:26:48.052Z,1006.07
2019-02-08T01:27:14.161Z,1006.13
2019-02-08T01:27:40.273Z,1006.03
2019-02-08T01:28:06.378Z,1006.09
2019-02-08T01:28:32.490Z,1006.14
2019-02-08T01:28:58.602Z,1006.11
2019-02-08T01:29:24.759Z,1006.09
2019-02-08T01:29:50.874Z,1006.14
2019-02-08T01:30:16.997Z,1006.15
2019-02-08T01:30:43.110Z,1006.12
2019-02-08T01:31:09.208Z,1006.15
2019-02-08T01:31:35.315Z,1006.18
2019-02-08T01:32:01.423Z,1006.21
2019-02-08T01:32:27.532Z,1006.22
2019-02-08T01:32:53.634Z,1006.2
2019-02-08T01:33:19.738Z,1006.27
2019-02-08T01:33:45.838Z,1006.19
2019-02-08T01:34:11.944Z,1006.2
2019-02-08T01:34:38.050Z,1006.22
2019-02-08T01:35:04.158Z,1006.21
2019-02-08T01:35:30.323Z,1006.14
2019-02-08T01:35:56.433Z,1006.15
2019-02-08T01:36:22.543Z,1006.16
2019-02-08T01:36:48.644Z,1006.2
2019-02-08T01:37:14.813Z,1006.19
2019-02-08T01:37:40.914Z,1006.16
2019-02-08T01:38:07.024Z,1006.16
2019-02-08T01:38:33.133Z,1006.19
2019-02-08T01:38:59.236Z,1006.16
2019-02-08T01:39:25.345Z,1006.16
2019-02-08T01:39:51.451Z,1006.2
2019-02-08T01:40:17.555Z,1006.13
2019-02-08T01:40:43.654Z,1006.1
2019-02-08T01:41:09.764Z,1006.17
2019-02-08T01:41:35.864Z,1006.15
2019-02-08T01:42:01.976Z,1006.17
2019-02-08T01:42:28.081Z,1006.15
2019-02-08T01:42:54.184Z,1006.13
2019-02-08T01:43:20.293Z,1006.16
2019-02-08T01:43:46.427Z,1006.15
2019-02-08T01:44:12.528Z,1006.2
2019-02-08T01:44:38.638Z,1006.17
2019-02-08T01:45:04.741Z,1006.15
2019-02-08T01:45:30.871Z,1006.21
2019-02-08T01:45:56.982Z,1006.21
2019-02-08T01:46:23.091Z,1006.22
2019-02-08T01:46:49.203Z,1006.26
2019-02-08T01:47:15.335Z,1006.23
2019-02-08T01:47:41.445Z,1006.26
2019-02-08T01:48:07.573Z,1006.3
2019-02-08T01:48:33.684Z,1006.24
2019-02-08T01:48:59.792Z,1006.28
2019-02-08T01:49:25.897Z,1006.26
2019-02-08T01:49:52.005Z,1006.22
2019-02-08T01:50:18.105Z,1006.2
2019-02-08T01:50:44.249Z,1006.18
2019-02-08T01:51:10.388Z,1006.16
2019-02-08T01:51:36.487Z,1006.2
2019-02-08T01:52:02.587Z,1006.2
2019-02-08T01:52:28.696Z,1006.16
2019-02-08T01:52:54.806Z,1006.17
2019-02-08T01:53:20.944Z,1006.14
2019-02-08T01:53:48.633Z,1006.2
2019-02-08T01:54:14.169Z,1006.12
2019-02-08T01:54:40.276Z,1006.17
2019-02-08T01:55:06.383Z,1006.13
2019-02-08T01:55:32.548Z,1006.19
2019-02-08T01:55:58.680Z,1006.24
2019-02-08T01:56:24.827Z,1006.2
2019-02-08T01:56:50.929Z,1006.14
2019-02-08T01:57:17.035Z,1006.15
2019-02-08T01:57:43.149Z,1006.18
2019-02-08T01:58:09.313Z,1006.19
2019-02-08T01:58:35.442Z,1006.15
2019-02-08T01:59:01.552Z,1006.16
2019-02-08T01:59:27.682Z,1006.15
2019-02-08T01:59:53.810Z,1006.22
2019-02-08T02:00:20.494Z,1006.15
2019-02-08T02:00:46.597Z,1006.15
2019-02-08T02:01:12.710Z,1006.15
2019-02-08T02:01:38.809Z,1006.16
2019-02-08T02:02:04.917Z,1006.14
2019-02-08T02:02:31.020Z,1006.12
2019-02-08T02:02:57.129Z,1006.15
2019-02-08T02:03:23.235Z,1006.08
2019-02-08T02:03:49.341Z,1006.15
2019-02-08T02:04:15.445Z,1006.13
2019-02-08T02:04:41.554Z,1006.14
2019-02-08T02:05:07.684Z,1006.18
2019-02-08T02:05:33.792Z,1006.11
2019-02-08T02:05:59.895Z,1006.17
2019-02-08T02:06:26.054Z,1006.13
2019-02-08T02:06:52.159Z,1006.11
2019-02-08T02:07:18.272Z,1006.16
2019-02-08T02:07:44.405Z,1006.12
2019-02-08T02:08:10.533Z,1006.13
2019-02-08T02:08:36.643Z,1006.18
2019-02-08T02:09:02.744Z,1006.13
2019-02-08T02:09:28.850Z,1006.1
2019-02-08T02:09:54.947Z,1006.08
2019-02-08T02:10:21.058Z,1006.19
2019-02-08T02:10:47.166Z,1006.01
2019-02-08T02:11:13.273Z,1006.09
2019-02-08T02:11:39.377Z,1006.12
2019-02-08T02:12:05.490Z,1006.15
2019-02-08T02:12:31.593Z,1006.13
2019-02-08T02:12:57.732Z,1006.15
2019-02-08T02:13:23.843Z,1006.19
2019-02-08T02:13:49.966Z,1006.14
2019-02-08T02:14:16.077Z,1006.16
2019-02-08T02:14:42.179Z,1006.15
2019-02-08T02:15:08.316Z,1006.16
2019-02-08T02:15:34.414Z,1006.14
2019-02-08T02:16:00.550Z,1006.14
2019-02-08T02:16:26.650Z,1006.17
2019-02-08T02:16:52.757Z,1006.17
2019-02-08T02:17:18.859Z,1006.17
2019-02-08T02:17:44.963Z,1006.17
2019-02-08T02:18:11.074Z,1006.17
2019-02-08T02:18:37.204Z,1006.19
2019-02-08T02:19:03.316Z,1006.18
2019-02-08T02:19:29.479Z,1006.2
2019-02-08T02:19:55.588Z,1006.21
2019-02-08T02:20:21.688Z,1006.17
2019-02-08T02:20:47.819Z,1006.14
2019-02-08T02:21:13.932Z,1006.31
2019-02-08T02:21:40.066Z,1006.25
2019-02-08T02:22:06.192Z,1006.28
2019-02-08T02:22:32.303Z,1006.17
2019-02-08T02:22:58.438Z,1006.22
2019-02-08T02:23:24.580Z,1006.21
2019-02-08T02:23:55.937Z,1006.18
2019-02-08T02:24:17.778Z,1006.18
2019-02-08T02:24:43.879Z,1006.2
2019-02-08T02:25:09.988Z,1006.19
2019-02-08T02:25:36.092Z,1006.21
2019-02-08T02:26:02.193Z,1006.22
2019-02-08T02:26:28.305Z,1006.23
2019-02-08T02:26:54.409Z,1006.21
2019-02-08T02:27:20.518Z,1006.18
2019-02-08T02:27:46.628Z,1006.25
2019-02-08T02:28:12.755Z,1006.22
2019-02-08T02:28:38.895Z,1006.24
2019-02-08T02:29:05.014Z,1006.34
2019-02-08T02:29:31.103Z,1006.27
2019-02-08T02:29:57.209Z,1006.27
2019-02-08T02:30:23.382Z,1006.27
2019-02-08T02:30:49.534Z,1006.24
2019-02-08T02:31:15.657Z,1006.26
2019-02-08T02:31:41.721Z,1006.36
2019-02-08T02:32:07.859Z,1006.22
2019-02-08T02:32:33.971Z,1006.29
2019-02-08T02:33:00.106Z,1006.22
2019-02-08T02:33:26.215Z,1006.22
2019-02-08T02:33:52.347Z,1006.22
2019-02-08T02:34:18.447Z,1006.21
2019-02-08T02:34:44.553Z,1006.23
2019-02-08T02:35:10.665Z,1006.26
2019-02-08T02:35:36.773Z,1006.25
2019-02-08T02:36:02.875Z,1006.28
2019-02-08T02:36:29.009Z,1006.31
2019-02-08T02:36:55.154Z,1006.26
2019-02-08T02:37:21.265Z,1006.27
2019-02-08T02:37:47.398Z,1006.27
2019-02-08T02:38:13.497Z,1006.27
2019-02-08T02:38:39.640Z,1006.28
2019-02-08T02:39:05.776Z,1006.29
2019-02-08T02:39:31.875Z,1006.25
2019-02-08T02:39:58.010Z,1006.27
2019-02-08T02:40:24.122Z,1006.33
2019-02-08T02:40:50.259Z,1006.24
2019-02-08T02:41:16.401Z,1006.2
2019-02-08T02:41:42.509Z,1006.3
2019-02-08T02:42:08.610Z,1006.24
2019-02-08T02:42:34.725Z,1006.25
2019-02-08T02:43:00.831Z,1006.26
2019-02-08T02:43:26.998Z,1006.31
2019-02-08T02:43:53.131Z,1006.31
2019-02-08T02:44:19.239Z,1006.26
2019-02-08T02:44:45.344Z,1006.29
2019-02-08T02:45:11.468Z,1006.29
2019-02-08T02:45:37.585Z,1006.32
2019-02-08T02:46:03.699Z,1006.3
2019-02-08T02:46:29.798Z,1006.35
2019-02-08T02:46:55.908Z,1006.34
2019-02-08T02:47:22.012Z,1006.33
2019-02-08T02:47:48.115Z,1006.35
2019-02-08T02:48:14.228Z,1006.39
2019-02-08T02:48:40.361Z,1006.38
2019-02-08T02:49:06.491Z,1006.5
2019-02-08T02:49:32.601Z,1006.36
2019-02-08T02:49:58.732Z,1006.38
2019-02-08T02:50:24.834Z,1006.36
2019-02-08T02:50:50.934Z,1006.33
2019-02-08T02:51:17.047Z,1006.3
2019-02-08T02:51:43.147Z,1006.33
2019-02-08T02:52:09.257Z,1006.32
2019-02-08T02:52:35.416Z,1006.39
2019-02-08T02:53:01.551Z,1006.32
2019-02-08T02:53:27.683Z,1006.33
2019-02-08T02:53:53.817Z,1006.3
2019-02-08T02:54:20.932Z,1006.29
2019-02-08T02:54:47.066Z,1006.38
2019-02-08T02:55:13.177Z,1006.34
2019-02-08T02:55:39.305Z,1006.42
2019-02-08T02:56:05.420Z,1006.37
2019-02-08T02:56:31.551Z,1006.35
2019-02-08T02:56:57.658Z,1006.37
2019-02-08T02:57:23.797Z,1006.35
2019-02-08T02:57:49.904Z,1006.33
2019-02-08T02:58:16.039Z,1006.33
2019-02-08T02:58:42.151Z,1006.38
2019-02-08T02:59:08.245Z,1006.33
2019-02-08T02:59:34.376Z,1006.31
2019-02-08T03:00:00.478Z,1006.37
2019-02-08T03:00:26.682Z,1006.39
2019-02-08T03:00:52.791Z,1006.4
2019-02-08T03:01:18.929Z,1006.45
2019-02-08T03:01:45.039Z,1006.34
2019-02-08T03:02:11.139Z,1006.28
2019-02-08T03:02:37.245Z,1006.37
2019-02-08T03:03:04.366Z,1006.36
2019-02-08T03:03:30.473Z,1006.31
2019-02-08T03:03:56.579Z,1006.3
2019-02-08T03:04:22.680Z,1006.33
2019-02-08T03:04:48.784Z,1006.33
2019-02-08T03:05:14.928Z,1006.24
2019-02-08T03:05:41.032Z,1006.27
2019-02-08T03:06:07.143Z,1006.25
2019-02-08T03:06:33.271Z,1006.24
2019-02-08T03:06:59.415Z,1006.35
2019-02-08T03:07:25.513Z,1006.32
2019-02-08T03:07:51.649Z,1006.25
2019-02-08T03:08:17.756Z,1006.34
2019-02-08T03:08:44.859Z,1006.33
2019-02-08T03:09:10.995Z,1006.34
2019-02-08T03:09:37.121Z,1006.34
2019-02-08T03:10:03.257Z,1006.32
2019-02-08T03:10:29.367Z,1006.31
2019-02-08T03:10:55.498Z,1006.35
2019-02-08T03:11:21.637Z,1006.27
2019-02-08T03:11:47.792Z,1006.31
2019-02-08T03:12:13.897Z,1006.38
2019-02-08T03:12:40.010Z,1006.32
2019-02-08T03:13:06.148Z,1006.32
2019-02-08T03:13:32.252Z,1006.39
2019-02-08T03:13:58.374Z,1006.39
2019-02-08T03:14:24.486Z,1006.36
2019-02-08T03:14:50.610Z,1006.29
2019-02-08T03:15:16.730Z,1006.35
2019-02-08T03:15:42.839Z,1006.4
2019-02-08T03:16:08.938Z,1006.34
2019-02-08T03:16:35.045Z,1006.36
2019-02-08T03:17:01.147Z,1006.37
2019-02-08T03:17:27.256Z,1006.34
2019-02-08T03:17:53.364Z,1006.33
2019-02-08T03:18:19.541Z,1006.32
2019-02-08T03:18:45.632Z,1006.34
2019-02-08T03:19:11.730Z,1006.37
2019-02-08T03:19:37.843Z,1006.33
2019-02-08T03:20:03.980Z,1006.38
2019-02-08T03:20:30.104Z,1006.37
2019-02-08T03:20:56.247Z,1006.32
2019-02-08T03:21:22.373Z,1006.29
2019-02-08T03:21:48.479Z,1006.31
2019-02-08T03:22:14.583Z,1006.39
2019-02-08T03:22:40.749Z,1006.37
2019-02-08T03:23:06.883Z,1006.37
2019-02-08T03:23:32.988Z,1006.22
2019-02-08T03:23:59.117Z,1006.34
2019-02-08T03:24:26.212Z,1006.3
2019-02-08T03:24:52.342Z,1006.31
2019-02-08T03:25:18.478Z,1006.3
2019-02-08T03:25:44.578Z,1006.26
2019-02-08T03:26:10.750Z,1006.31
2019-02-08T03:26:36.879Z,1006.26
2019-02-08T03:27:02.984Z,1006.3
2019-02-08T03:27:29.122Z,1006.3
2019-02-08T03:27:55.221Z,1006.25
2019-02-08T03:28:21.323Z,1006.22
2019-02-08T03:28:47.430Z,1006.21
2019-02-08T03:29:13.564Z,1006.26
2019-02-08T03:29:39.701Z,1006.2
2019-02-08T03:30:05.805Z,1006.23
2019-02-08T03:30:31.960Z,1006.24
2019-02-08T03:30:58.084Z,1006.2
2019-02-08T03:31:24.191Z,1006.15
2019-02-08T03:31:50.355Z,1006.26
2019-02-08T03:32:16.528Z,1006.27
2019-02-08T03:32:42.711Z,1006.18
2019-02-08T03:33:08.857Z,1006.21
2019-02-08T03:33:35.018Z,1006.23
2019-02-08T03:34:01.176Z,1006.17
2019-02-08T03:34:27.309Z,1006.19
2019-02-08T03:34:53.419Z,1006.15
2019-02-08T03:35:19.575Z,1006.13
2019-02-08T03:35:45.667Z,1006.14
2019-02-08T03:36:11.829Z,1006.17
2019-02-08T03:36:37.939Z,1006.16
2019-02-08T03:37:04.097Z,1006.16
2019-02-08T03:37:30.206Z,1006.19
2019-02-08T03:37:56.509Z,1006.24
2019-02-08T03:38:22.603Z,1006.14
2019-02-08T03:38:48.733Z,1006.17
2019-02-08T03:39:14.837Z,1006.18
2019-02-08T03:39:40.970Z,1006.17
2019-02-08T03:40:07.094Z,1006.13
2019-02-08T03:40:33.204Z,1006.18
2019-02-08T03:40:59.315Z,1006.26
2019-02-08T03:41:25.416Z,1006.31
2019-02-08T03:41:51.528Z,1006.14
2019-02-08T03:42:17.653Z,1006.15
2019-02-08T03:42:43.792Z,1006.15
2019-02-08T03:43:09.920Z,1006.14
2019-02-08T03:43:36.055Z,1006.19
2019-02-08T03:44:02.187Z,1006.21
2019-02-08T03:44:28.295Z,1006.14
2019-02-08T03:44:54.393Z,1006.14
2019-02-08T03:45:20.503Z,1006.15
2019-02-08T03:45:46.603Z,1006.21
2019-02-08T03:46:12.713Z,1006.13
2019-02-08T03:46:38.858Z,1006.15
2019-02-08T03:47:05.021Z,1006.19
2019-02-08T03:47:31.121Z,1006.13
2019-02-08T03:47:57.221Z,1006.11
2019-02-08T03:48:23.337Z,1006.12
2019-02-08T03:48:49.466Z,1006.15
2019-02-08T03:49:15.566Z,1006.14
2019-02-08T03:49:41.673Z,1006.15
2019-02-08T03:50:07.802Z,1006.19
2019-02-08T03:50:33.919Z,1006.23
2019-02-08T03:51:00.046Z,1006.23
2019-02-08T03:51:26.189Z,1006.13
2019-02-08T03:51:52.287Z,1006.19
2019-02-08T03:52:18.392Z,1006.18
2019-02-08T03:52:44.497Z,1006.16
2019-02-08T03:53:10.610Z,1006.11
2019-02-08T03:53:36.740Z,1006.18
2019-02-08T03:54:02.850Z,1006.15
2019-02-08T03:54:29.966Z,1006.16
2019-02-08T03:54:56.119Z,1006.05
2019-02-08T03:55:22.213Z,1006.11
2019-02-08T03:55:48.349Z,1006.17
2019-02-08T03:56:14.722Z,1006.14
2019-02-08T03:56:40.834Z,1006.1
2019-02-08T03:57:06.941Z,1006.12
2019-02-08T03:57:33.048Z,1006.12
2019-02-08T03:57:59.210Z,1006.07
2019-02-08T03:58:25.312Z,1006.11
2019-02-08T03:58:51.451Z,1006.12
2019-02-08T03:59:17.553Z,1006.03
2019-02-08T03:59:43.658Z,1006.07
2019-02-08T04:00:09.766Z,1006.03
2019-02-08T04:00:35.876Z,1006.07
2019-02-08T04:01:01.988Z,1006.06
2019-02-08T04:01:28.141Z,1006
2019-02-08T04:01:54.266Z,1006.09
2019-02-08T04:02:20.457Z,1006.01
2019-02-08T04:02:46.554Z,1006.06
2019-02-08T04:03:12.697Z,1006.1
2019-02-08T04:03:38.836Z,1006.04
2019-02-08T04:04:04.965Z,1006.04
2019-02-08T04:04:31.064Z,1006.07
2019-02-08T04:04:57.170Z,1006.04
2019-02-08T04:05:23.279Z,1006
2019-02-08T04:05:49.390Z,1005.99
2019-02-08T04:06:15.501Z,1006.05
2019-02-08T04:06:41.600Z,1005.94
2019-02-08T04:07:07.767Z,1005.99
2019-02-08T04:07:33.891Z,1006.06
2019-02-08T04:07:59.998Z,1006.02
2019-02-08T04:08:26.131Z,1006.06
2019-02-08T04:08:52.245Z,1006
2019-02-08T04:09:18.346Z,1005.98
2019-02-08T04:09:44.478Z,1006.02
2019-02-08T04:10:10.600Z,1006
2019-02-08T04:10:36.707Z,1005.97
2019-02-08T04:11:02.814Z,1005.97
2019-02-08T04:11:28.931Z,1006.03
2019-02-08T04:11:55.061Z,1006.08
2019-02-08T04:12:21.200Z,1006.01
2019-02-08T04:12:47.343Z,1006.02
2019-02-08T04:13:13.449Z,1005.99
2019-02-08T04:13:39.556Z,1005.96
2019-02-08T04:14:05.650Z,1006
2019-02-08T04:14:31.785Z,1005.93
2019-02-08T04:14:57.895Z,1005.93
2019-02-08T04:15:24.005Z,1005.97
2019-02-08T04:15:50.112Z,1005.92
2019-02-08T04:16:16.246Z,1005.92
2019-02-08T04:16:42.353Z,1005.93
2019-02-08T04:17:08.453Z,1005.95
2019-02-08T04:17:34.588Z,1005.96
2019-02-08T04:18:00.702Z,1005.84
2019-02-08T04:18:26.809Z,1006.09
2019-02-08T04:18:53.057Z,1005.99
2019-02-08T04:19:19.172Z,1005.91
2019-02-08T04:19:45.342Z,1005.98
2019-02-08T04:20:11.452Z,1005.99
2019-02-08T04:20:37.558Z,1006
2019-02-08T04:21:03.722Z,1006.02
2019-02-08T04:21:29.827Z,1006.09
2019-02-08T04:21:55.938Z,1006.04
2019-02-08T04:22:22.044Z,1006.04
2019-02-08T04:22:48.150Z,1006.03
2019-02-08T04:23:14.286Z,1006
2019-02-08T04:23:40.390Z,1006.03
2019-02-08T04:24:06.519Z,1006.03
2019-02-08T04:24:34.601Z,1005.98
2019-02-08T04:25:00.741Z,1006.02
2019-02-08T04:25:26.913Z,1005.98
2019-02-08T04:25:53.017Z,1005.96
2019-02-08T04:26:19.119Z,1006.12
2019-02-08T04:26:45.715Z,1005.85
2019-02-08T04:27:11.851Z,1005.96
2019-02-08T04:27:38.006Z,1006.05
2019-02-08T04:28:04.113Z,1005.99
2019-02-08T04:28:30.217Z,1005.93
2019-02-08T04:28:56.354Z,1006.07
2019-02-08T04:29:22.485Z,1006.1
2019-02-08T04:29:48.613Z,1006.12
2019-02-08T04:30:14.724Z,1006.04
2019-02-08T04:30:40.833Z,1006.12
2019-02-08T04:31:06.957Z,1006.13
2019-02-08T04:31:33.065Z,1006.12
2019-02-08T04:31:59.200Z,1006.08
2019-02-08T04:32:25.314Z,1006.09
2019-02-08T04:32:51.413Z,1006.11
2019-02-08T04:33:17.516Z,1006.02
2019-02-08T04:33:43.654Z,1006.01
2019-02-08T04:34:09.788Z,1006
2019-02-08T04:34:35.892Z,1005.97
2019-02-08T04:35:02.027Z,1006.03
2019-02-08T04:35:28.195Z,1005.99
2019-02-08T04:35:54.302Z,1006.03
2019-02-08T04:36:20.411Z,1006.11
2019-02-08T04:36:46.519Z,1006.06
2019-02-08T04:37:12.626Z,1006.02
2019-02-08T04:37:38.763Z,1006.03
2019-02-08T04:38:04.888Z,1006.02
2019-02-08T04:38:30.994Z,1006.05
2019-02-08T04:38:57.121Z,1006.09
2019-02-08T04:39:23.226Z,1005.97
2019-02-08T04:39:49.329Z,1006.08
2019-02-08T04:40:15.435Z,1005.99
2019-02-08T04:40:41.580Z,1006.01
2019-02-08T04:41:07.685Z,1005.97
2019-02-08T04:41:33.785Z,1006.01
2019-02-08T04:41:59.889Z,1005.98
2019-02-08T04:42:25.992Z,1006.02
2019-02-08T04:42:52.100Z,1006.06
2019-02-08T04:43:18.213Z,1006.01
2019-02-08T04:43:44.317Z,1005.92
2019-02-08T04:44:10.422Z,1005.94
2019-02-08T04:44:36.584Z,1005.97
2019-02-08T04:45:02.698Z,1005.98
2019-02-08T04:45:28.821Z,1005.93
2019-02-08T04:45:54.943Z,1006.01
2019-02-08T04:46:21.097Z,1006
2019-02-08T04:46:47.203Z,1005.86
2019-02-08T04:47:13.303Z,1005.89
2019-02-08T04:47:39.445Z,1005.94
2019-02-08T04:48:05.583Z,1006.05
2019-02-08T04:48:31.713Z,1006.03
2019-02-08T04:48:57.814Z,1005.95
2019-02-08T04:49:23.927Z,1005.94
2019-02-08T04:49:50.065Z,1005.88
2019-02-08T04:50:16.174Z,1005.9
2019-02-08T04:50:42.282Z,1005.86
2019-02-08T04:51:08.385Z,1005.98
2019-02-08T04:51:34.522Z,1005.86
2019-02-08T04:52:00.622Z,1005.88
2019-02-08T04:52:26.724Z,1005.83
2019-02-08T04:52:52.829Z,1005.93
2019-02-08T04:53:18.947Z,1005.87
2019-02-08T04:53:45.070Z,1005.91
2019-02-08T04:54:11.175Z,1005.95
2019-02-08T04:54:38.655Z,1005.87
2019-02-08T04:55:04.773Z,1005.87
2019-02-08T04:55:30.902Z,1005.9
2019-02-08T04:55:57.066Z,1006.03
2019-02-08T04:56:23.166Z,1006.01
2019-02-08T04:56:49.307Z,1005.95
2019-02-08T04:57:15.412Z,1005.86
2019-02-08T04:57:41.525Z,1005.95
2019-02-08T04:58:07.652Z,1005.86
2019-02-08T04:58:35.776Z,1005.94
2019-02-08T04:59:01.874Z,1005.93
2019-02-08T04:59:28.016Z,1005.93
2019-02-08T04:59:54.121Z,1006.01
2019-02-08T05:00:20.264Z,1005.92
2019-02-08T05:00:46.363Z,1005.9
2019-02-08T05:01:12.534Z,1005.88
2019-02-08T05:01:38.631Z,1005.87
2019-02-08T05:02:04.746Z,1005.89
2019-02-08T05:02:30.845Z,1005.84
2019-02-08T05:02:56.977Z,1005.85
2019-02-08T05:03:23.107Z,1005.87
2019-02-08T05:03:49.219Z,1005.9
2019-02-08T05:04:15.340Z,1005.82
2019-02-08T05:04:41.480Z,1005.89
2019-02-08T05:05:07.612Z,1005.9
2019-02-08T05:05:33.722Z,1005.91
2019-02-08T05:05:59.848Z,1005.95
2019-02-08T05:06:25.962Z,1005.9
2019-02-08T05:06:52.064Z,1005.83
2019-02-08T05:07:18.173Z,1005.9
2019-02-08T05:07:44.277Z,1005.96
2019-02-08T05:08:10.375Z,1005.89
2019-02-08T05:08:36.484Z,1005.93
2019-02-08T05:09:02.585Z,1005.91
2019-02-08T05:09:28.694Z,1005.92
2019-02-08T05:09:54.795Z,1005.91
2019-02-08T05:10:20.907Z,1005.91
2019-02-08T05:10:47.014Z,1005.85
2019-02-08T05:11:13.117Z,1005.83
2019-02-08T05:11:39.223Z,1005.82
2019-02-08T05:12:05.357Z,1005.73
2019-02-08T05:12:31.494Z,1005.85
2019-02-08T05:12:57.637Z,1005.78
2019-02-08T05:13:23.765Z,1005.79
2019-02-08T05:13:49.883Z,1005.78
2019-02-08T05:14:16.016Z,1005.78
2019-02-08T05:14:42.145Z,1005.76
2019-02-08T05:15:08.252Z,1005.81
2019-02-08T05:15:34.414Z,1005.77
2019-02-08T05:16:00.479Z,1005.74
2019-02-08T05:16:26.610Z,1005.81
2019-02-08T05:16:52.723Z,1005.81
2019-02-08T05:17:18.826Z,1005.74
2019-02-08T05:17:44.924Z,1005.79
2019-02-08T05:18:11.087Z,1005.75